Vowinckel, PA (16260)

9:30 AM EST on November 24, 2014 (GMT -0500)
Penn Oaks Campground | Change Station
CLOSE
Current Station
Personal Weather Station
Location: Leeper, PA
Elevation: 1621 ft
Nearby Weather Stations
Active Advisory: Wind Advisory Active Notice: Public Information Statement

Elev 1621 ft 41.37 °N, 79.29 °W | Updated 0 second ago

Overcast
Overcast
58.6 °F
Feels Like 58.6 °F
N
2.0
Wind Variable Wind from East
Gusts 7.0 mph

Today
High -- | Low -- °F
--% Chance of Precip.
Yesterday
High -- | Low -- °F
Precip. -- in
7:15 AM 4:51 PM
Waxing Crescent, 5% visible
Pressure 29.45 in
Visibility 10.0 miles
Clouds Overcast 6000 ft
Dew Point 54 °F
Humidity 84%
Rainfall 0.58 in
Snow Depth Not available.
UV 0 out of 12
Pollen .10 out of 12
Air Quality Not available.
Flu Activity Not available.
METAR KDUJ 241353Z AUTO 20009G17KT 160V240 10SM OVC060 16/10 A2946 RMK AO2 SLP973 T01560100

More Conditions Fewer Conditions

Pressure 29.45 in
Visibility 10.0 miles
Clouds Overcast 6000 ft
Dew Point 54 °F
Humidity 84%
Rainfall 0.58 in
Snow Depth Not available.
UV 0 out of 12
Pollen .10 out of 12
Air Quality Not available.
Flu Activity Not available.
METAR KDUJ 241353Z AUTO 20009G17KT 160V240 10SM OVC060 16/10 A2946 RMK AO2 SLP973 T01560100

More Conditions Fewer Conditions

10-Day Weather Forecast

Almanac

Astronomy

Nov. 24, 2014 Rise Set
Actual Time
Civil Twilight
Nautical Twilight
Astronomical Twilight
Moon
Length of Visible Light
Length of Day
Tomorrow will be .
, % of the Moon is Illuminated

Today's Extremes

State Highs State Lows

Community

WunderPhotos

Upload Photos

1,773,350 photos uploaded!

WunderBlogs® & News

Nearby

Air Quality

  Air Quality AQ Index Pollutant
Not available.

Snow Depth

Station Depth Elevation

Earthquake Activity

City Distance Mag. Time & Date
Minimum magnitude displayed is 2.5.

Coastal Water Temperatures

Place Temperature

Nearby Weather Stations